.
WxDataArchive / Data Records for 2008-06-20
2008-06-19 June 2008 2008-06-21

Data Records for Friday, 20 June 2008

Time	Temp	Chill	HIndex	Humid	Dewpt	 Wind 	HiWind	WindDir	Rain 	Barom 
-----	----	-----	------	-----	-----	------	------	-------	-----	----- 
00:00	55.4	55.4	55.4	80	49.3	0	0	---	0.00	29.899 
00:05	55.3	55.3	55.3	81	49.6	0	0	---	0.00	29.899 
00:10	55.1	55.1	55.1	81	49.4	0	0	---	0.00	29.899 
00:15	55.0	55.0	55.0	80	48.9	0	0	---	0.00	29.896 
00:20	54.8	54.8	54.8	80	48.7	0	0	---	0.00	29.900 
00:25	54.7	54.7	54.7	81	49.0	0	0	---	0.00	29.900 
00:30	54.5	54.5	54.5	81	48.8	0	0	---	0.00	29.900 
00:35	54.4	54.4	54.4	81	48.7	0	0	---	0.00	29.898 
00:40	54.2	54.2	54.2	81	48.5	0	0	---	0.00	29.900 
00:45	54.1	54.1	54.1	82	48.7	0	0	---	0.00	29.897 
00:50	53.9	53.9	53.9	83	48.9	0	0	---	0.00	29.895 
00:55	53.9	53.9	53.9	84	49.2	0	0	---	0.00	29.895 
01:00	53.8	53.8	53.8	84	49.1	0	0	---	0.00	29.896 
01:05	53.6	53.6	53.6	84	48.9	0	0	---	0.00	29.895 
01:10	53.6	53.6	53.6	85	49.2	0	0	---	0.00	29.897 
01:15	53.5	53.5	53.5	85	49.1	0	0	---	0.00	29.897 
01:20	53.3	53.3	53.3	85	48.9	0	0	---	0.00	29.898 
01:25	53.2	53.2	53.2	85	48.8	0	0	---	0.00	29.898 
01:30	53.2	53.2	53.2	85	48.8	0	0	---	0.00	29.896 
01:35	53.1	53.1	53.1	85	48.7	0	0	---	0.00	29.895 
01:40	52.9	52.9	52.9	85	48.5	0	0	---	0.00	29.893 
01:45	52.9	52.9	52.9	85	48.5	0	0	---	0.00	29.892 
01:50	52.8	52.8	52.8	86	48.7	0	0	---	0.00	29.892 
01:55	52.6	52.6	52.6	86	48.5	0	0	---	0.00	29.894 
02:00	52.6	52.6	52.6	86	48.5	0	0	---	0.00	29.894 
02:05	52.5	52.5	52.5	87	48.7	0	0	---	0.00	29.889 
02:10	52.5	52.5	52.5	87	48.7	0	0	---	0.00	29.890 
02:15	52.3	52.3	52.3	88	48.9	0	0	---	0.00	29.892 
02:20	52.2	52.2	52.2	88	48.8	0	0	---	0.00	29.893 
02:25	52.0	52.0	52.0	88	48.6	0	0	---	0.00	29.893 
02:30	52.0	52.0	52.0	89	48.9	0	0	---	0.00	29.891 
02:35	52.0	52.0	52.0	89	48.9	0	0	---	0.00	29.892 
02:40	51.9	51.9	51.9	89	48.8	0	0	---	0.00	29.892 
02:45	51.7	51.7	51.7	89	48.6	0	0	---	0.00	29.890 
02:50	51.6	51.6	51.6	89	48.5	0	0	---	0.00	29.890 
02:55	51.6	51.6	51.6	89	48.5	0	0	---	0.00	29.887 
03:00	51.4	51.4	51.4	89	48.3	0	0	---	0.00	29.887 
03:05	51.3	51.3	51.3	90	48.5	0	0	---	0.00	29.886 
03:10	51.3	51.3	51.3	90	48.5	0	0	---	0.00	29.887 
03:15	51.1	51.1	51.1	90	48.3	0	0	---	0.00	29.886 
03:20	51.1	51.1	51.1	90	48.3	0	0	---	0.00	29.886 
03:25	51.0	51.0	51.0	90	48.2	0	0	---	0.00	29.886 
03:30	51.0	51.0	51.0	91	48.5	0	0	---	0.00	29.886 
03:35	51.0	51.0	51.0	91	48.5	0	0	---	0.00	29.887 
03:40	51.0	51.0	51.0	91	48.5	0	0	---	0.00	29.886 
03:45	50.8	50.8	50.8	91	48.3	0	0	---	0.00	29.887 
03:50	50.8	50.8	50.8	91	48.3	0	0	---	0.00	29.887 
03:55	50.7	50.7	50.7	91	48.2	0	0	---	0.00	29.887 
04:00	50.5	50.5	50.5	91	48.0	0	0	---	0.00	29.886 
04:05	50.5	50.5	50.5	91	48.0	0	0	---	0.00	29.887 
04:10	50.4	50.4	50.4	91	47.9	0	0	---	0.00	29.890 
04:15	50.4	50.4	50.4	92	48.2	0	0	---	0.00	29.891 
04:20	50.4	50.4	50.4	92	48.2	0	0	---	0.00	29.890 
04:25	50.2	50.2	50.2	92	48.0	0	0	---	0.00	29.890 
04:30	50.2	50.2	50.2	92	48.0	0	0	---	0.00	29.889 
04:35	50.1	50.1	50.1	92	47.9	0	0	---	0.00	29.889 
04:40	49.9	49.9	49.9	92	47.7	0	0	---	0.00	29.889 
04:45	49.9	49.9	49.9	92	47.7	0	0	---	0.00	29.891 
04:50	49.8	49.8	49.8	92	47.6	0	0	---	0.00	29.891 
04:55	49.8	49.8	49.8	92	47.6	0	0	---	0.00	29.894 
05:00	49.9	49.9	49.9	93	48.0	0	0	---	0.00	29.902 
05:05	50.1	50.1	50.1	93	48.2	0	0	---	0.00	29.905 
05:10	50.1	50.1	50.1	93	48.2	0	0	---	0.00	29.906 
05:15	50.1	50.1	50.1	93	48.2	0	0	---	0.00	29.907 
05:20	50.1	50.1	50.1	93	48.2	0	0	---	0.00	29.908 
05:25	50.1	50.1	50.1	93	48.2	0	0	---	0.00	29.911 
05:30	50.1	50.1	50.1	93	48.2	0	0	---	0.00	29.910 
05:35	50.1	50.1	50.1	93	48.2	0	0	---	0.00	29.911 
05:40	50.1	50.1	50.1	94	48.4	0	0	---	0.00	29.911 
05:45	50.4	50.4	50.4	94	48.7	0	0	---	0.00	29.914 
05:50	50.5	50.5	50.5	94	48.8	0	0	---	0.00	29.913 
05:55	50.7	50.7	50.7	94	49.0	0	0	---	0.00	29.913 
06:00	50.8	50.8	50.8	94	49.1	0	0	---	0.00	29.913 
06:05	51.3	51.3	51.3	94	49.6	0	0	---	0.00	29.916 
06:10	51.6	51.6	51.6	94	49.9	0	0	---	0.00	29.915 
06:15	52.0	52.0	52.0	94	50.3	0	0	---	0.00	29.916 
06:20	52.6	52.6	52.6	94	50.9	0	0	---	0.00	29.918 
06:25	53.3	53.3	53.3	94	51.6	0	0	---	0.00	29.919 
06:30	54.2	54.2	54.2	93	52.2	0	0	---	0.00	29.919 
06:35	55.1	55.1	55.1	92	52.8	0	0	---	0.00	29.918 
06:40	56.2	56.2	56.2	90	53.3	0	0	---	0.00	29.916 
06:45	57.2	57.2	57.2	87	53.4	0	0	---	0.00	29.917 
06:50	58.4	58.4	58.4	84	53.6	0	0	---	0.00	29.916 
06:55	59.5	59.5	59.5	81	53.7	0	0	---	0.00	29.915 
07:00	60.5	60.5	60.5	78	53.6	0	0	---	0.00	29.913 
07:05	61.8	61.8	61.8	74	53.4	0	0	---	0.00	29.916 
07:10	63.4	63.4	63.4	71	53.8	0	0	---	0.00	29.917 
07:15	64.7	64.7	64.7	63	51.8	0	1	315	0.00	29.914 
07:20	65.3	65.3	65.3	63	52.4	0	0	---	0.00	29.916 
07:25	66.0	66.0	66.0	62	52.6	0	1	315	0.00	29.917 
07:30	66.9	66.9	66.9	60	52.6	0	1	315	0.00	29.920 
07:35	67.4	67.4	67.4	59	52.6	0	1	315	0.00	29.922 
07:40	68.4	68.4	68.4	54	51.1	0	1	315	0.00	29.921 
07:45	69.4	69.4	69.4	50	49.9	0	2	315	0.00	29.923 
07:50	70.3	70.3	70.3	50	50.8	0	1	315	0.00	29.923 
07:55	70.8	70.8	70.8	50	51.2	0	1	315	0.00	29.924 
08:00	71.5	71.5	71.5	50	51.9	0	1	315	0.00	29.924 
08:05	72.3	72.3	72.3	49	52.1	0	1	315	0.00	29.927 
08:10	73.2	73.2	73.2	47	51.7	0	1	315	0.00	29.925 
08:15	73.9	73.9	73.9	45	51.2	0	2	315	0.00	29.926 
08:20	73.9	73.9	73.9	43	50.0	1	2	315	0.00	29.927 
08:25	73.7	73.7	73.7	45	51.0	0	1	315	0.00	29.926 
08:30	73.3	73.3	73.3	44	50.1	0	1	315	0.00	29.926 
08:35	73.3	73.3	73.3	43	49.4	0	3	315	0.00	29.926 
08:40	73.7	73.7	73.7	43	49.8	1	3	22	0.00	29.926 
08:45	74.0	74.0	74.0	42	49.4	1	3	22	0.00	29.927 
08:50	74.6	74.6	74.6	45	51.8	1	2	22	0.00	29.928 
08:55	74.9	74.9	74.9	41	49.6	0	2	22	0.00	29.928 
09:00	75.4	75.4	77.7	42	50.7	0	2	22	0.00	29.930 
09:05	75.6	75.6	77.6	38	48.2	0	2	338	0.00	29.933 
09:10	76.0	76.0	77.8	39	49.2	0	1	338	0.00	29.933 
09:15	76.7	76.7	78.0	37	48.4	0	2	248	0.00	29.930 
09:20	77.0	77.0	78.1	38	49.4	1	3	180	0.00	29.930 
09:25	77.6	77.6	78.5	39	50.7	1	3	112	0.00	29.930 
09:30	77.2	77.2	78.1	36	48.2	1	3	248	0.00	29.933 
09:35	77.2	77.2	78.1	36	48.2	0	2	248	0.00	29.934 
09:40	77.4	77.4	78.3	37	49.1	0	2	248	0.00	29.935 
09:45	77.6	77.6	78.4	37	49.2	0	2	248	0.00	29.936 
09:50	77.4	77.4	78.3	38	49.8	1	3	248	0.00	29.935 
09:55	77.0	77.0	78.1	37	48.7	0	1	248	0.00	29.936 
10:00	76.3	76.3	77.7	36	47.4	0	2	248	0.00	29.937 
10:05	75.8	75.8	77.7	38	48.4	0	1	248	0.00	29.941 
10:10	76.1	76.1	77.9	41	50.7	0	2	248	0.00	29.937 
10:15	77.0	77.0	78.1	38	49.4	0	2	248	0.00	29.938 
10:20	78.1	78.1	78.5	35	48.2	1	2	158	0.00	29.938 
10:25	78.6	78.6	78.7	34	47.9	0	2	158	0.00	29.938 
10:30	79.0	79.0	79.0	36	49.7	0	2	158	0.00	29.940 
10:35	79.2	79.2	78.7	30	45.1	1	2	248	0.00	29.941 
10:40	79.2	79.2	78.9	32	46.8	0	2	248	0.00	29.940 
10:45	79.6	79.6	79.0	30	45.4	1	3	248	0.00	29.939 
10:50	79.8	79.8	79.1	31	46.5	0	2	248	0.00	29.937 
10:55	79.9	79.9	79.2	31	46.5	0	2	248	0.00	29.936 
11:00	80.3	80.3	79.5	32	47.7	1	3	248	0.00	29.937 
11:05	80.3	80.3	79.4	31	46.9	1	3	315	0.00	29.940 
11:10	80.7	80.7	79.6	30	46.4	0	2	315	0.00	29.942 
11:15	80.7	80.7	79.5	28	44.5	1	2	315	0.00	29.940 
11:20	80.9	80.9	79.7	30	46.5	1	3	315	0.00	29.939 
11:25	80.9	80.9	79.7	29	45.6	1	2	315	0.00	29.940 
11:30	81.1	81.1	79.8	29	45.8	1	3	292	0.00	29.940 
11:35	80.9	80.9	79.9	32	48.2	1	2	292	0.00	29.940 
11:40	80.9	80.9	79.5	27	43.8	1	3	0	0.00	29.939 
11:45	80.7	80.7	79.5	28	44.5	1	3	270	0.00	29.941 
11:50	80.1	80.1	79.1	27	43.1	1	3	292	0.00	29.943 
11:55	79.8	79.8	78.9	28	43.8	0	2	292	0.00	29.943 
12:00	80.5	80.5	79.5	30	46.2	1	4	270	0.00	29.939 
12:05	81.1	81.1	79.9	31	47.6	0	2	248	0.00	29.936 
12:10	81.6	81.6	80.1	29	46.2	2	5	248	0.00	29.939 
12:15	81.1	81.1	79.7	28	44.9	2	4	292	0.00	29.938 
12:20	81.2	81.2	79.9	29	45.9	1	3	248	0.00	29.940 
12:25	81.6	81.6	80.2	30	47.1	1	4	248	0.00	29.938 
12:30	81.6	81.6	80.1	28	45.3	2	4	248	0.00	29.940 
12:35	81.8	81.8	80.1	27	44.5	1	3	292	0.00	29.940 
12:40	82.2	82.2	80.4	27	44.9	1	4	315	0.00	29.941 
12:45	81.8	81.8	80.1	27	44.5	1	3	315	0.00	29.940 
12:50	81.8	81.8	80.2	28	45.5	1	3	315	0.00	29.939 
12:55	82.2	82.2	80.5	28	45.8	1	3	248	0.00	29.941 
13:00	81.8	81.8	80.2	28	45.5	2	4	292	0.00	29.943 
13:05	81.6	81.6	80.0	27	44.4	2	4	315	0.00	29.944 
13:10	81.6	81.6	80.1	28	45.3	1	3	270	0.00	29.944 
13:15	82.0	82.0	80.3	28	45.7	1	3	270	0.00	29.943 
13:20	82.2	82.2	80.6	30	47.7	1	4	248	0.00	29.943 
13:25	82.0	82.0	80.4	29	46.6	1	3	338	0.00	29.942 
13:30	82.2	82.2	80.5	28	45.8	1	3	248	0.00	29.940 
13:35	82.4	82.4	80.6	28	46.0	1	3	315	0.00	29.938 
13:40	82.4	82.4	80.5	27	45.0	1	4	248	0.00	29.936 
13:45	81.6	81.6	80.2	30	47.1	1	4	292	0.00	29.937 
13:50	81.1	81.1	80.0	32	48.4	0	1	0	0.00	29.937 
13:55	80.5	80.5	79.6	32	47.9	0	2	338	0.00	29.935 
14:00	80.1	80.1	79.3	31	46.7	1	3	292	0.00	29.939 
14:05	80.7	80.7	79.7	31	47.2	1	3	315	0.00	29.939 
14:10	80.9	80.9	79.8	31	47.4	1	3	292	0.00	29.938 
14:15	81.1	81.1	79.8	29	45.8	1	3	315	0.00	29.937 
14:20	81.2	81.2	80.0	31	47.7	1	3	315	0.00	29.934 
14:25	81.4	81.4	80.2	32	48.7	1	3	338	0.00	29.932 
14:30	81.4	81.4	80.1	31	47.8	1	3	338	0.00	29.932 
14:35	81.6	81.6	80.1	28	45.3	2	4	315	0.00	29.934 
14:40	81.6	81.6	80.4	32	48.9	1	3	315	0.00	29.934 
14:45	81.8	81.8	80.3	30	47.3	1	2	315	0.00	29.932 
14:50	82.0	82.0	80.6	31	48.4	1	3	338	0.00	29.931 
14:55	82.4	82.4	80.9	31	48.7	1	3	338	0.00	29.932 
15:00	82.6	82.6	80.9	30	48.0	1	3	292	0.00	29.930 
15:05	82.8	82.8	81.0	29	47.3	1	4	270	0.00	29.930 
15:10	83.0	83.0	81.0	27	45.5	1	3	270	0.00	29.929 
15:15	82.6	82.6	80.8	29	47.1	2	4	292	0.00	29.929 
15:20	82.4	82.4	80.6	28	46.0	1	4	315	0.00	29.930 
15:25	82.2	82.2	80.6	30	47.7	0	3	315	0.00	29.928 
15:30	82.8	82.8	81.1	30	48.2	1	2	270	0.00	29.925 
15:35	83.0	83.0	81.1	29	47.4	1	3	270	0.00	29.926 
15:40	82.8	82.8	80.9	28	46.3	0	3	270	0.00	29.925 
15:45	82.6	82.6	80.8	29	47.1	1	3	315	0.00	29.926 
15:50	82.2	82.2	80.5	28	45.8	2	4	315	0.00	29.926 
15:55	82.0	82.0	80.3	28	45.7	1	2	248	0.00	29.924 
16:00	82.2	82.2	80.6	30	47.7	1	2	315	0.00	29.921 
16:05	82.4	82.4	80.8	30	47.8	0	2	315	0.00	29.918 
16:10	82.8	82.8	80.9	28	46.3	1	3	315	0.00	29.919 
16:15	82.6	82.6	80.8	28	46.2	1	4	315	0.00	29.918 
16:20	82.4	82.4	80.5	27	45.0	1	4	315	0.00	29.916 
16:25	82.4	82.4	80.5	27	45.0	2	5	248	0.00	29.917 
16:30	82.4	82.4	80.8	30	47.8	1	4	270	0.00	29.916 
16:35	82.4	82.4	80.6	28	46.0	1	3	292	0.00	29.916 
16:40	82.8	82.8	81.2	31	49.0	0	3	292	0.00	29.914 
16:45	83.4	83.4	81.4	29	47.8	0	2	292	0.00	29.914 
16:50	83.2	83.2	81.3	29	47.6	1	4	292	0.00	29.915 
16:55	83.0	83.0	81.1	29	47.4	1	4	248	0.00	29.914 
17:00	82.6	82.6	80.9	30	48.0	1	2	315	0.00	29.914 
17:05	82.6	82.6	80.9	30	48.0	1	2	315	0.00	29.912 
17:10	82.6	82.6	80.8	29	47.1	1	3	315	0.00	29.912 
17:15	82.4	82.4	80.9	31	48.7	0	2	248	0.00	29.909 
17:20	82.4	82.4	80.7	29	46.9	1	3	292	0.00	29.912 
17:25	82.4	82.4	80.8	30	47.8	1	3	270	0.00	29.912 
17:30	82.2	82.2	80.7	31	48.5	1	2	270	0.00	29.909 
17:35	82.2	82.2	80.7	31	48.5	0	1	270	0.00	29.908 
17:40	82.0	82.0	80.7	33	50.0	0	1	270	0.00	29.909 
17:45	81.8	81.8	80.4	31	48.2	1	3	292	0.00	29.909 
17:50	81.6	81.6	80.5	33	49.7	1	3	292	0.00	29.911 
17:55	81.4	81.4	80.2	32	48.7	1	3	292	0.00	29.912 
18:00	81.1	81.1	80.0	32	48.4	1	2	270	0.00	29.913 
18:05	81.1	81.1	80.0	32	48.4	1	3	270	0.00	29.907 
18:10	80.9	80.9	79.9	32	48.2	1	2	315	0.00	29.907 
18:15	80.9	80.9	80.1	34	49.9	0	2	315	0.00	29.907 
18:20	80.5	80.5	79.7	33	48.7	0	2	315	0.00	29.908 
18:25	80.1	80.1	79.5	34	49.2	0	1	315	0.00	29.910 
18:30	79.9	79.9	79.5	35	49.8	0	1	315	0.00	29.911 
18:35	80.1	80.1	79.5	34	49.2	0	1	315	0.00	29.910 
18:40	80.1	80.1	79.5	33	48.4	1	4	270	0.00	29.909 
18:45	79.9	79.9	79.5	35	49.8	0	2	248	0.00	29.908 
18:50	79.8	79.8	79.5	36	50.4	1	2	248	0.00	29.908 
18:55	79.4	79.4	79.2	35	49.3	0	2	292	0.00	29.908 
19:00	79.0	79.0	79.0	35	49.0	0	1	292	0.00	29.908 
19:05	78.6	78.6	78.9	37	50.1	0	0	---	0.00	29.900 
19:10	78.3	78.3	78.8	38	50.6	0	0	---	0.00	29.900 
19:15	78.1	78.1	78.7	38	50.4	0	0	---	0.00	29.900 
19:20	77.7	77.7	78.5	39	50.7	0	0	---	0.00	29.901 
19:25	77.6	77.6	78.4	38	50.0	0	1	292	0.00	29.901 
19:30	77.6	77.6	78.5	39	50.7	0	0	---	0.00	29.901 
19:35	77.2	77.2	78.4	41	51.7	0	0	---	0.00	29.903 
19:40	76.8	76.8	78.1	40	50.6	0	0	---	0.00	29.903 
19:45	76.5	76.5	78.1	42	51.7	0	0	---	0.00	29.902 
19:50	76.0	76.0	77.9	43	51.9	0	0	---	0.00	29.903 
19:55	75.4	75.4	77.7	43	51.3	0	0	---	0.00	29.903 
20:00	74.9	74.9	74.9	45	52.1	0	0	---	0.00	29.904 
20:05	74.4	74.4	74.4	45	51.7	0	0	---	0.00	29.901 
20:10	73.9	73.9	73.9	47	52.4	0	0	---	0.00	29.902 
20:15	73.2	73.2	73.2	48	52.3	0	0	---	0.00	29.901 
20:20	72.7	72.7	72.7	48	51.9	0	0	---	0.00	29.901 
20:25	72.1	72.1	72.1	51	53.0	0	0	---	0.00	29.903 
20:30	71.6	71.6	71.6	51	52.5	0	0	---	0.00	29.903 
20:35	71.1	71.1	71.1	52	52.6	0	0	---	0.00	29.905 
20:40	70.8	70.8	70.8	53	52.8	0	0	---	0.00	29.906 
20:45	70.4	70.4	70.4	54	52.9	0	0	---	0.00	29.914 
20:50	70.1	70.1	70.1	55	53.2	0	0	---	0.00	29.916 
20:55	69.6	69.6	69.6	56	53.2	0	0	---	0.00	29.918 
21:00	69.4	69.4	69.4	58	54.0	0	0	---	0.00	29.919 
21:05	68.9	68.9	68.9	59	54.0	0	0	---	0.00	29.920 
21:10	68.4	68.4	68.4	60	54.0	0	0	---	0.00	29.921 
21:15	68.1	68.1	68.1	60	53.7	0	0	---	0.00	29.923 
21:20	67.8	67.8	67.8	61	53.9	0	0	---	0.00	29.928 
21:25	67.6	67.6	67.6	62	54.1	0	0	---	0.00	29.931 
21:30	67.3	67.3	67.3	63	54.3	0	0	---	0.00	29.934 
21:35	67.1	67.1	67.1	64	54.5	0	0	---	0.00	29.935 
21:40	66.8	66.8	66.8	64	54.2	0	0	---	0.00	29.936 
21:45	66.6	66.6	66.6	65	54.5	0	0	---	0.00	29.936 
21:50	66.4	66.4	66.4	65	54.3	0	0	---	0.00	29.936 
21:55	66.3	66.3	66.3	65	54.2	0	0	---	0.00	29.936 
22:00	66.0	66.0	66.0	67	54.7	0	0	---	0.00	29.937 
22:05	65.6	65.6	65.6	67	54.3	0	0	---	0.00	29.934 
22:10	65.5	65.5	65.5	67	54.2	0	0	---	0.00	29.934 
22:15	65.3	65.3	65.3	67	54.1	0	0	---	0.00	29.934 
22:20	65.2	65.2	65.2	68	54.4	0	0	---	0.00	29.934 
22:25	64.8	64.8	64.8	69	54.4	0	0	---	0.00	29.934 
22:30	64.7	64.7	64.7	69	54.3	0	0	---	0.00	29.934 
22:35	64.5	64.5	64.5	70	54.5	0	0	---	0.00	29.934 
22:40	64.3	64.3	64.3	71	54.7	0	0	---	0.00	29.931 
22:45	64.2	64.2	64.2	72	55.0	0	0	---	0.00	29.931 
22:50	63.9	63.9	63.9	73	55.1	0	0	---	0.00	29.933 
22:55	63.7	63.7	63.7	73	54.9	0	0	---	0.00	29.935 
23:00	63.5	63.5	63.5	73	54.7	0	0	---	0.00	29.933 
23:05	63.4	63.4	63.4	74	55.0	0	0	---	0.00	29.932 
23:10	63.2	63.2	63.2	74	54.8	0	0	---	0.00	29.931 
23:15	63.2	63.2	63.2	75	55.1	0	0	---	0.00	29.933 
23:20	63.1	63.1	63.1	75	55.0	0	0	---	0.00	29.931 
23:25	63.1	63.1	63.1	76	55.4	0	0	---	0.00	29.930 
23:30	63.1	63.1	63.1	76	55.4	0	0	---	0.00	29.930 
23:35	63.2	63.2	63.2	77	55.9	0	0	---	0.00	29.931 
23:40	63.4	63.4	63.4	76	55.7	0	0	---	0.00	29.931 
23:45	63.5	63.5	63.5	77	56.2	0	0	---	0.00	29.931 
23:50	63.7	63.7	63.7	77	56.3	0	0	---	0.00	29.932 
23:55	63.9	63.9	63.9	77	56.5	0	0	---	0.00	29.931 

CoCoRaHS
IN-AL-39
A2 Web Hosting
Creative Commons License
GoDaddy
Look for:

loaded 2017-10-18 07:16:08 • last modified 2010-11-18 10:43:29
Privacy PolicyDisclaimer
• wx.awcolley.com is powered by PmWiki v.2002016 •
• all content (unless otherwise noted) © 2017 A W Colley